createdAt,value
2022-08-30T00:00:40.878Z,1.90
2022-08-30T00:03:12.219Z,1.73
2022-08-30T00:05:40.484Z,2.10
2022-08-30T00:08:08.843Z,1.73
2022-08-30T00:10:38.151Z,2.20
2022-08-30T00:13:06.750Z,2.03
2022-08-30T00:15:35.229Z,1.77
2022-08-30T00:18:03.269Z,1.97
2022-08-30T00:20:34.103Z,1.97
2022-08-30T00:23:02.690Z,1.83
2022-08-30T00:25:30.964Z,1.93
2022-08-30T00:27:58.875Z,1.83
2022-08-30T00:30:26.907Z,2.00
2022-08-30T00:32:55.243Z,1.87
2022-08-30T00:35:24.045Z,2.17
2022-08-30T00:37:53.382Z,1.67
2022-08-30T00:40:27.269Z,2.20
2022-08-30T00:42:59.641Z,1.70
2022-08-30T00:45:30.971Z,2.17
2022-08-30T00:47:59.854Z,1.80
2022-08-30T00:50:33.963Z,1.80
2022-08-30T00:53:08.518Z,2.17
2022-08-30T00:55:38.840Z,1.73
2022-08-30T00:58:09.283Z,1.80
2022-08-30T01:00:37.934Z,2.10
2022-08-30T01:03:09.283Z,1.73
2022-08-30T01:05:38.858Z,2.33
2022-08-30T01:08:08.368Z,2.00
2022-08-30T01:10:37.698Z,1.77
2022-08-30T01:13:06.641Z,1.90
2022-08-30T01:15:35.244Z,2.00
2022-08-30T01:18:04.274Z,1.90
2022-08-30T01:20:41.814Z,1.90
2022-08-30T01:23:14.890Z,2.10
2022-08-30T01:25:46.263Z,1.80
2022-08-30T01:28:18.693Z,2.10
2022-08-30T01:30:46.849Z,2.03
2022-08-30T01:33:15.789Z,2.20
2022-08-30T01:35:48.806Z,1.90
2022-08-30T01:38:19.406Z,1.90
2022-08-30T01:40:47.514Z,1.90
2022-08-30T01:43:17.053Z,2.13
2022-08-30T01:45:45.713Z,2.43
2022-08-30T01:48:13.761Z,2.30
2022-08-30T01:50:42.709Z,2.00
2022-08-30T01:53:13.125Z,2.00
2022-08-30T01:55:43.468Z,1.70
2022-08-30T01:58:11.915Z,1.80
2022-08-30T02:00:40.241Z,2.10
2022-08-30T02:03:08.734Z,2.03
2022-08-30T02:05:36.766Z,2.20
2022-08-30T02:08:05.117Z,2.20
2022-08-30T02:10:33.348Z,1.90
2022-08-30T02:13:03.010Z,1.80
2022-08-30T02:15:31.026Z,1.87
2022-08-30T02:18:10.562Z,1.43
2022-08-30T02:20:39.737Z,2.60
2022-08-30T02:23:07.740Z,2.03
2022-08-30T02:25:35.779Z,1.77
2022-08-30T02:28:06.430Z,2.00
2022-08-30T02:30:34.855Z,2.27
2022-08-30T02:33:02.847Z,2.30
2022-08-30T02:35:30.807Z,1.93
2022-08-30T02:37:58.709Z,2.33
2022-08-30T02:40:26.773Z,2.30
2022-08-30T02:42:54.755Z,2.10
2022-08-30T02:45:24.280Z,2.37
2022-08-30T02:47:52.828Z,1.87
2022-08-30T02:50:21.006Z,1.90
2022-08-30T02:52:48.990Z,2.20
2022-08-30T02:55:17.881Z,2.10
2022-08-30T02:57:45.916Z,2.10
2022-08-30T03:00:17.602Z,2.03
2022-08-30T03:02:46.951Z,1.47
2022-08-30T03:05:16.803Z,2.40
2022-08-30T03:07:45.614Z,2.13
2022-08-30T03:10:14.184Z,1.80
2022-08-30T03:12:42.544Z,1.90
2022-08-30T03:15:12.503Z,2.17
2022-08-30T03:17:40.824Z,2.50
2022-08-30T03:20:12.731Z,1.93
2022-08-30T03:22:40.952Z,2.10
2022-08-30T03:25:10.301Z,1.97
2022-08-30T03:27:38.274Z,2.40
2022-08-30T03:30:07.903Z,2.20
2022-08-30T03:32:36.291Z,2.10
2022-08-30T03:35:04.686Z,2.00
2022-08-30T03:37:34.502Z,2.00
2022-08-30T03:40:02.730Z,2.30
2022-08-30T03:42:30.777Z,2.43
2022-08-30T03:44:58.721Z,2.00
2022-08-30T03:47:26.627Z,2.10
2022-08-30T03:49:54.666Z,2.00
2022-08-30T03:52:22.601Z,2.70
2022-08-30T03:54:51.941Z,1.90
2022-08-30T03:57:24.556Z,1.97
2022-08-30T03:59:52.962Z,2.43
2022-08-30T04:02:21.568Z,2.40
2022-08-30T04:04:49.686Z,2.40
2022-08-30T04:07:19.065Z,2.83
2022-08-30T04:09:47.237Z,2.77
2022-08-30T04:12:20.505Z,2.43
2022-08-30T04:14:50.893Z,2.70
2022-08-30T04:17:18.911Z,3.20
2022-08-30T04:19:46.838Z,2.30
2022-08-30T04:22:14.779Z,2.20
2022-08-30T04:24:42.813Z,2.47
2022-08-30T04:27:11.142Z,2.23
2022-08-30T04:29:40.501Z,3.30
2022-08-30T04:32:08.559Z,2.70
2022-08-30T04:34:36.662Z,3.00
2022-08-30T04:37:04.708Z,3.07
2022-08-30T04:39:33.686Z,3.37
2022-08-30T04:42:03.237Z,3.33
2022-08-30T04:44:33.119Z,2.70
2022-08-30T04:47:02.422Z,2.60
2022-08-30T04:49:32.285Z,2.53
2022-08-30T04:52:00.296Z,2.30
2022-08-30T04:54:28.681Z,2.60
2022-08-30T04:56:56.806Z,3.00
2022-08-30T04:59:24.783Z,2.57
2022-08-30T05:01:52.707Z,2.30
2022-08-30T05:04:22.023Z,3.23
2022-08-30T05:06:50.124Z,3.20
2022-08-30T05:09:18.956Z,3.53
2022-08-30T05:11:47.021Z,2.93
2022-08-30T05:14:15.265Z,2.37
2022-08-30T05:16:43.601Z,2.50
2022-08-30T05:19:12.695Z,2.77
2022-08-30T05:21:42.361Z,2.43
2022-08-30T05:24:10.514Z,2.57
2022-08-30T05:26:39.994Z,2.87
2022-08-30T05:29:08.319Z,2.70
2022-08-30T05:31:37.431Z,2.93
2022-08-30T05:34:05.948Z,2.70
2022-08-30T05:36:36.830Z,2.63
2022-08-30T05:39:07.526Z,2.67
2022-08-30T05:41:37.343Z,2.70
2022-08-30T05:44:07.560Z,2.80
2022-08-30T05:46:36.049Z,2.60
2022-08-30T05:49:05.768Z,2.30
2022-08-30T05:51:35.791Z,2.40
2022-08-30T05:54:09.706Z,2.90
2022-08-30T05:56:39.698Z,2.43
2022-08-30T05:59:09.482Z,2.50
2022-08-30T06:01:39.631Z,2.47
2022-08-30T06:04:10.636Z,2.80
2022-08-30T06:06:40.037Z,2.60
2022-08-30T06:09:11.309Z,2.63
2022-08-30T06:11:39.487Z,2.70
2022-08-30T06:14:07.822Z,2.40
2022-08-30T06:16:38.687Z,2.50
2022-08-30T06:19:08.756Z,2.30
2022-08-30T06:21:41.139Z,2.43
2022-08-30T06:24:11.914Z,2.33
2022-08-30T06:26:41.735Z,2.00
2022-08-30T06:29:10.773Z,2.40
2022-08-30T06:31:38.765Z,2.70
2022-08-30T06:34:07.135Z,2.13
2022-08-30T06:36:36.242Z,2.17
2022-08-30T06:39:05.168Z,2.00
2022-08-30T06:41:38.214Z,2.47
2022-08-30T06:44:07.455Z,2.40
2022-08-30T06:46:39.048Z,2.07
2022-08-30T06:49:07.667Z,2.50
2022-08-30T06:51:39.699Z,2.20
2022-08-30T06:54:09.181Z,2.10
2022-08-30T06:56:48.676Z,2.60
2022-08-30T06:59:25.885Z,2.23
2022-08-30T07:01:55.175Z,2.53
2022-08-30T07:04:23.247Z,2.17
2022-08-30T07:06:51.294Z,2.20
2022-08-30T07:09:19.369Z,2.40
2022-08-30T07:11:48.755Z,2.10
2022-08-30T07:14:16.699Z,2.20
2022-08-30T07:16:45.829Z,2.13
2022-08-30T07:19:20.747Z,2.20
2022-08-30T07:21:49.689Z,2.00
2022-08-30T07:24:18.659Z,2.13
2022-08-30T07:26:51.716Z,2.27
2022-08-30T07:29:21.108Z,2.43
2022-08-30T07:31:49.466Z,2.43
2022-08-30T07:34:19.271Z,2.20
2022-08-30T07:36:48.488Z,2.60
2022-08-30T07:39:16.434Z,2.60
2022-08-30T07:41:44.497Z,2.20
2022-08-30T07:44:13.834Z,2.63
2022-08-30T07:46:42.732Z,2.60
2022-08-30T07:49:12.930Z,2.40
2022-08-30T07:51:43.389Z,2.70
2022-08-30T07:54:11.355Z,2.17
2022-08-30T07:56:39.390Z,2.33
2022-08-30T07:59:07.467Z,2.30
2022-08-30T08:01:36.799Z,2.20
2022-08-30T08:04:05.101Z,2.30
2022-08-30T08:06:35.222Z,2.87
2022-08-30T08:09:03.310Z,2.10
2022-08-30T08:11:33.887Z,2.63
2022-08-30T08:14:02.657Z,2.43
2022-08-30T08:16:34.338Z,2.60
2022-08-30T08:19:03.889Z,1.97
2022-08-30T08:21:31.801Z,2.37
2022-08-30T08:23:59.675Z,2.40
2022-08-30T08:26:27.608Z,2.03
2022-08-30T08:28:55.665Z,2.10
2022-08-30T08:31:31.518Z,2.30
2022-08-30T08:34:05.429Z,1.80
2022-08-30T08:36:34.388Z,2.23
2022-08-30T08:39:03.050Z,2.40
2022-08-30T08:41:40.900Z,2.40
2022-08-30T08:44:15.407Z,2.33
2022-08-30T08:46:53.409Z,2.57
2022-08-30T08:49:22.777Z,2.47
2022-08-30T08:52:08.735Z,2.37
2022-08-30T08:54:42.375Z,1.83
2022-08-30T08:57:13.760Z,2.20
2022-08-30T08:59:44.882Z,1.80
2022-08-30T09:02:24.989Z,2.10
2022-08-30T09:04:57.027Z,2.23
2022-08-30T09:07:29.526Z,2.10
2022-08-30T09:10:00.541Z,1.80
2022-08-30T09:12:28.714Z,2.47
2022-08-30T09:15:03.661Z,2.20
2022-08-30T09:17:51.400Z,2.00
2022-08-30T09:20:29.332Z,2.10
2022-08-30T09:22:57.472Z,2.00
2022-08-30T09:25:28.585Z,1.90
2022-08-30T09:28:12.398Z,2.30
2022-08-30T09:30:40.738Z,2.20
2022-08-30T09:33:20.471Z,1.93
2022-08-30T09:35:52.193Z,2.20
2022-08-30T09:38:24.379Z,1.90
2022-08-30T09:40:54.752Z,2.20
2022-08-30T09:43:25.811Z,2.30
2022-08-30T09:46:10.218Z,2.10
2022-08-30T09:48:45.275Z,2.47
2022-08-30T09:51:41.481Z,2.50
2022-08-30T09:54:20.067Z,2.40
2022-08-30T09:57:01.117Z,2.33
2022-08-30T09:59:46.873Z,2.80
2022-08-30T10:02:44.191Z,2.10
2022-08-30T10:05:19.439Z,2.70
2022-08-30T10:08:00.883Z,2.70
2022-08-30T10:10:35.960Z,2.90
2022-08-30T10:13:18.787Z,2.80
2022-08-30T10:15:51.994Z,2.50
2022-08-30T10:18:28.502Z,2.40
2022-08-30T10:21:08.006Z,2.63
2022-08-30T10:23:42.382Z,2.70
2022-08-30T10:26:15.536Z,2.27
2022-08-30T10:28:51.230Z,2.20
2022-08-30T10:31:28.949Z,2.23
2022-08-30T10:34:03.819Z,2.57
2022-08-30T10:36:38.280Z,2.50
2022-08-30T10:39:09.930Z,2.30
2022-08-30T10:41:47.136Z,2.63
2022-08-30T10:44:21.231Z,2.60
2022-08-30T10:47:01.438Z,2.53
2022-08-30T10:50:14.159Z,2.40
2022-08-30T10:53:06.543Z,2.50
2022-08-30T10:55:49.969Z,2.47
2022-08-30T10:58:21.605Z,2.50
2022-08-30T11:01:01.267Z,2.90
2022-08-30T11:04:00.912Z,2.20
2022-08-30T11:06:35.359Z,2.53
2022-08-30T11:09:29.028Z,2.40
2022-08-30T11:12:28.999Z,2.40
2022-08-30T11:14:57.903Z,2.77
2022-08-30T11:17:30.016Z,3.00
2022-08-30T11:19:59.990Z,2.20
2022-08-30T11:22:36.790Z,2.57
2022-08-30T11:25:13.891Z,2.40
2022-08-30T11:27:47.446Z,2.40
2022-08-30T11:30:50.607Z,2.50
2022-08-30T11:33:42.626Z,2.50
2022-08-30T11:37:09.898Z,3.20
2022-08-30T11:39:58.095Z,2.30
2022-08-30T11:42:34.825Z,2.30
2022-08-30T11:45:40.136Z,2.40
2022-08-30T11:48:10.535Z,2.20
2022-08-30T11:50:50.674Z,2.57
2022-08-30T11:53:27.262Z,2.40
2022-08-30T11:56:08.691Z,2.53
2022-08-30T11:58:49.327Z,2.80
2022-08-30T12:01:49.802Z,2.13
2022-08-30T12:04:35.425Z,2.80
2022-08-30T12:07:05.704Z,2.47
2022-08-30T12:10:05.838Z,2.03
2022-08-30T12:12:56.761Z,2.00
2022-08-30T12:15:57.682Z,2.47
2022-08-30T12:18:33.119Z,2.37
2022-08-30T12:21:28.061Z,2.47
2022-08-30T12:24:03.694Z,2.10
2022-08-30T12:26:35.843Z,2.50
2022-08-30T12:29:20.967Z,2.00
2022-08-30T12:31:52.648Z,2.20
2022-08-30T12:34:25.490Z,2.57
2022-08-30T12:36:58.380Z,2.70
2022-08-30T12:39:29.290Z,2.43
2022-08-30T12:41:57.566Z,2.07
2022-08-30T12:44:28.519Z,2.43
2022-08-30T12:47:02.246Z,2.13
2022-08-30T12:49:35.290Z,1.77
2022-08-30T12:52:18.148Z,2.40
2022-08-30T12:54:48.085Z,2.30
2022-08-30T12:57:38.732Z,2.07
2022-08-30T13:00:09.080Z,2.30
2022-08-30T13:02:46.608Z,2.23
2022-08-30T13:05:42.944Z,1.90
2022-08-30T13:08:16.953Z,2.20
2022-08-30T13:10:58.298Z,2.17
2022-08-30T13:13:38.458Z,2.17
2022-08-30T13:16:22.717Z,2.27
2022-08-30T13:18:52.679Z,2.80
2022-08-30T13:21:28.199Z,2.00
2022-08-30T13:24:01.901Z,2.10
2022-08-30T13:26:33.134Z,2.43
2022-08-30T13:29:05.090Z,2.63
2022-08-30T13:31:38.409Z,2.13
2022-08-30T13:34:06.595Z,2.50
2022-08-30T13:36:37.179Z,2.20
2022-08-30T13:39:06.862Z,2.07
2022-08-30T13:41:34.832Z,2.27
2022-08-30T13:44:15.712Z,2.37
2022-08-30T13:46:54.195Z,2.33
2022-08-30T13:52:22.562Z,2.27
2022-08-30T13:54:52.275Z,2.10
2022-08-30T14:00:17.325Z,2.40
2022-08-30T14:02:51.542Z,2.37
2022-08-30T14:11:02.611Z,2.43
2022-08-30T14:13:31.210Z,2.47
2022-08-30T14:18:52.519Z,2.00
2022-08-30T14:21:21.499Z,2.40
2022-08-30T14:23:52.897Z,2.03
2022-08-30T14:26:23.910Z,2.27
2022-08-30T14:28:52.258Z,2.37
2022-08-30T14:31:21.646Z,2.20
2022-08-30T14:33:50.097Z,2.23
2022-08-30T14:36:18.381Z,2.50
2022-08-30T14:38:46.434Z,2.40
2022-08-30T14:41:16.400Z,2.20
2022-08-30T14:43:44.545Z,2.33
2022-08-30T14:46:12.879Z,2.40
2022-08-30T14:48:43.109Z,2.30
2022-08-30T14:51:16.591Z,2.53
2022-08-30T14:53:46.130Z,2.90
2022-08-30T14:56:19.497Z,2.47
2022-08-30T14:58:49.554Z,2.20
2022-08-30T15:01:18.090Z,2.50
2022-08-30T15:03:47.915Z,2.10
2022-08-30T15:06:16.561Z,3.17
2022-08-30T15:08:47.550Z,2.40
2022-08-30T15:11:20.458Z,2.27
2022-08-30T15:13:49.521Z,2.20
2022-08-30T15:16:24.810Z,2.90
2022-08-30T15:18:55.103Z,2.30
2022-08-30T15:21:25.098Z,2.47
2022-08-30T15:23:54.013Z,2.70
2022-08-30T15:26:22.246Z,2.60
2022-08-30T15:28:50.842Z,2.70
2022-08-30T15:31:20.102Z,2.80
2022-08-30T15:33:48.358Z,2.50
2022-08-30T15:36:19.197Z,2.60
2022-08-30T15:38:48.172Z,1.97
2022-08-30T15:41:16.794Z,2.07
2022-08-30T15:43:44.788Z,2.57
2022-08-30T15:46:20.034Z,2.80
2022-08-30T15:48:48.564Z,3.37
2022-08-30T15:51:20.312Z,3.93
2022-08-30T15:53:49.365Z,3.07
2022-08-30T15:56:18.140Z,2.83
2022-08-30T15:58:46.613Z,2.70
2022-08-30T16:01:17.351Z,2.40
2022-08-30T16:03:47.930Z,2.30
2022-08-30T16:06:20.356Z,2.33
2022-08-30T16:08:48.998Z,2.30
2022-08-30T16:11:18.844Z,1.90
2022-08-30T16:13:50.514Z,2.07
2022-08-30T16:16:20.983Z,2.20
2022-08-30T16:18:53.707Z,2.20
2022-08-30T16:21:25.720Z,2.47
2022-08-30T16:23:56.424Z,2.10
2022-08-30T16:26:26.261Z,1.80
2022-08-30T16:28:55.221Z,2.30
2022-08-30T16:31:26.132Z,2.30
2022-08-30T16:33:55.183Z,2.03
2022-08-30T16:36:32.291Z,2.40
2022-08-30T16:39:00.737Z,2.10
2022-08-30T16:41:29.521Z,1.93
2022-08-30T16:44:00.667Z,2.20
2022-08-30T16:46:28.823Z,2.00
2022-08-30T16:49:02.328Z,2.00
2022-08-30T16:51:34.172Z,2.10
2022-08-30T16:54:07.631Z,1.97
2022-08-30T16:56:44.317Z,1.77
2022-08-30T16:59:13.641Z,2.00
2022-08-30T17:01:43.334Z,2.17
2022-08-30T17:04:22.486Z,2.00
2022-08-30T17:06:59.387Z,2.47
2022-08-30T17:09:27.519Z,2.20
2022-08-30T17:11:56.166Z,2.20
2022-08-30T17:14:27.878Z,1.90
2022-08-30T17:16:57.783Z,2.17
2022-08-30T17:19:28.919Z,1.90
2022-08-30T17:22:01.182Z,2.00
2022-08-30T17:24:29.451Z,2.00
2022-08-30T17:26:58.202Z,2.00
2022-08-30T17:29:26.611Z,2.10
2022-08-30T17:31:54.918Z,2.10
2022-08-30T17:34:23.885Z,2.80
2022-08-30T17:37:01.548Z,2.10
2022-08-30T17:39:30.318Z,2.10
2022-08-30T17:42:03.964Z,2.13
2022-08-30T17:44:36.338Z,1.93
2022-08-30T17:47:04.698Z,1.90
2022-08-30T17:49:36.196Z,1.80
2022-08-30T17:52:11.454Z,1.93
2022-08-30T17:54:53.804Z,1.87
2022-08-30T17:57:22.204Z,1.90
2022-08-30T17:59:50.210Z,2.30
2022-08-30T18:02:22.678Z,1.97
2022-08-30T18:05:00.044Z,1.80
2022-08-30T18:07:29.390Z,1.90
2022-08-30T18:09:59.127Z,1.90
2022-08-30T18:12:27.668Z,2.13
2022-08-30T18:14:55.680Z,1.87
2022-08-30T18:17:23.740Z,2.20
2022-08-30T18:19:51.752Z,2.13
2022-08-30T18:22:19.717Z,2.27
2022-08-30T18:24:51.151Z,1.90
2022-08-30T18:27:21.735Z,1.90
2022-08-30T18:29:51.979Z,2.00
2022-08-30T18:32:19.984Z,1.90
2022-08-30T18:34:49.084Z,1.70
2022-08-30T18:37:17.105Z,1.77
2022-08-30T18:39:45.470Z,1.90
2022-08-30T18:42:16.688Z,1.90
2022-08-30T18:44:44.831Z,1.80
2022-08-30T18:47:13.146Z,1.80
2022-08-30T18:49:41.290Z,1.60
2022-08-30T18:52:10.794Z,1.67
2022-08-30T18:54:40.502Z,1.83
2022-08-30T18:57:09.807Z,1.60
2022-08-30T18:59:39.479Z,1.83
2022-08-30T19:02:12.619Z,1.67
2022-08-30T19:04:42.909Z,1.43
2022-08-30T19:07:15.260Z,1.53
2022-08-30T19:09:43.816Z,1.60
2022-08-30T19:12:13.598Z,1.70
2022-08-30T19:14:43.217Z,1.90
2022-08-30T19:17:11.895Z,1.80
2022-08-30T19:19:48.580Z,1.87
2022-08-30T19:23:16.752Z,1.70
2022-08-30T19:26:38.677Z,2.00
2022-08-30T19:29:06.963Z,2.30
2022-08-30T19:31:53.360Z,1.80
2022-08-30T19:34:22.170Z,1.80
2022-08-30T19:36:50.244Z,2.40
2022-08-30T19:39:24.891Z,1.50
2022-08-30T19:41:53.002Z,1.90
2022-08-30T19:44:21.014Z,1.80
2022-08-30T19:46:52.310Z,2.20
2022-08-30T19:49:21.620Z,2.00
2022-08-30T19:51:49.857Z,1.73
2022-08-30T19:54:18.062Z,2.00
2022-08-30T19:56:46.809Z,1.80
2022-08-30T19:59:16.249Z,1.93
2022-08-30T20:01:45.640Z,2.50
2022-08-30T20:04:16.494Z,2.00
2022-08-30T20:06:46.114Z,1.80
2022-08-30T20:09:14.363Z,2.03
2022-08-30T20:11:43.400Z,1.90
2022-08-30T20:14:13.536Z,2.23
2022-08-30T20:16:46.055Z,1.90
2022-08-30T20:19:17.011Z,2.00
2022-08-30T20:21:47.176Z,1.70
2022-08-30T20:24:20.860Z,1.70
2022-08-30T20:26:48.800Z,2.17
2022-08-30T20:29:29.158Z,1.83
2022-08-30T20:32:03.301Z,1.97
2022-08-30T20:34:33.622Z,1.47
2022-08-30T20:37:01.602Z,1.90
2022-08-30T20:39:29.906Z,1.57
2022-08-30T20:41:58.362Z,1.63
2022-08-30T20:44:26.296Z,1.50
2022-08-30T20:46:54.299Z,1.50
2022-08-30T20:49:22.401Z,1.50
2022-08-30T20:51:54.179Z,1.60
2022-08-30T20:54:22.798Z,1.70
2022-08-30T20:56:51.423Z,1.90
2022-08-30T20:59:19.405Z,1.63
2022-08-30T21:01:49.865Z,1.83
2022-08-30T21:04:18.747Z,1.87
2022-08-30T21:06:46.736Z,1.87
2022-08-30T21:09:16.110Z,1.63
2022-08-30T21:11:45.228Z,1.70
2022-08-30T21:14:13.498Z,1.90
2022-08-30T21:16:41.836Z,1.60
2022-08-30T21:19:09.891Z,1.60
2022-08-30T21:21:37.964Z,1.60
2022-08-30T21:24:09.815Z,1.60
2022-08-30T21:26:40.787Z,2.00
2022-08-30T21:29:09.112Z,1.90
2022-08-30T21:31:38.661Z,3.20
2022-08-30T21:34:07.331Z,1.63
2022-08-30T21:36:47.570Z,1.73
2022-08-30T21:39:18.338Z,1.87
2022-08-30T21:41:48.936Z,3.23
2022-08-30T21:44:20.541Z,2.57
2022-08-30T21:46:50.640Z,1.73
2022-08-30T21:49:21.911Z,1.70
2022-08-30T21:51:52.584Z,1.37
2022-08-30T21:54:21.686Z,1.70
2022-08-30T21:56:52.665Z,1.40
2022-08-30T21:59:22.208Z,1.40
2022-08-30T22:01:50.943Z,1.87
2022-08-30T22:04:23.075Z,1.90
2022-08-30T22:06:53.838Z,1.70
2022-08-30T22:09:25.040Z,1.60
2022-08-30T22:11:54.851Z,1.93
2022-08-30T22:14:24.066Z,1.63
2022-08-30T22:16:54.737Z,2.03
2022-08-30T22:19:23.646Z,1.70
2022-08-30T22:21:52.521Z,1.50
2022-08-30T22:24:24.326Z,1.50
2022-08-30T22:26:52.365Z,1.60
2022-08-30T22:29:21.776Z,1.80
2022-08-30T22:31:49.762Z,1.70
2022-08-30T22:34:17.774Z,1.80
2022-08-30T22:36:45.743Z,1.80
2022-08-30T22:39:14.063Z,2.00
2022-08-30T22:41:44.185Z,1.60
2022-08-30T22:44:12.901Z,1.60
2022-08-30T22:46:42.234Z,1.73
2022-08-30T22:49:11.825Z,1.70
2022-08-30T22:51:41.448Z,1.30
2022-08-30T22:54:10.722Z,1.50
2022-08-30T22:56:39.707Z,2.03
2022-08-30T22:59:08.663Z,1.60
2022-08-30T23:01:42.419Z,1.50
2022-08-30T23:04:12.895Z,1.77
2022-08-30T23:06:41.060Z,2.17
2022-08-30T23:09:11.324Z,1.83
2022-08-30T23:11:39.466Z,1.60
2022-08-30T23:14:08.151Z,1.77
2022-08-30T23:16:36.152Z,1.90
2022-08-30T23:19:05.457Z,1.87
2022-08-30T23:21:34.774Z,1.93
2022-08-30T23:24:20.236Z,1.50
2022-08-30T23:27:06.233Z,1.90
2022-08-30T23:29:52.607Z,1.30
2022-08-30T23:32:39.084Z,1.60
2022-08-30T23:35:29.465Z,1.43
2022-08-30T23:38:17.308Z,1.80
2022-08-30T23:41:02.630Z,1.57
2022-08-30T23:43:48.042Z,1.47
2022-08-30T23:46:33.903Z,1.70
2022-08-30T23:49:19.386Z,1.40
2022-08-30T23:52:04.957Z,1.60
2022-08-30T23:54:51.590Z,1.97
2022-08-30T23:57:42.621Z,1.73
